Bunker Hill, West Virginia
Current Conditions -  °F | °C
As of 10:53 PM on Thursday 27 Nov 2014 (Local Time) from KMRB Reporting Station
Scattered Clouds Scattered Clouds  
Wind Chill: -4°   Ceiling: Unl
Heat Index:   Visibility: 10mi
Dew Point: -7°   Wind: 15mph
Humidity: 52%   Direction: 310°NW
Pressure: 30.19"   Gusts: NA
Location:  39.33°N, 78.05°W
Report Text: KMRB 280353Z 31013KT 10SM SCT040 02/M07 A3019 RMK AO2 SLP227 T00171072
Loading
Personal Weather Stations






























Interactive Weather Map New forecast layout! Learn more

10-Day Weather Forecast

Advertisements
Track Severe Weather on mobile